Time;durP1;ratioP1;P1;durP2;ratioP2;P2;SDS_P1;SDS_P2;PMS_P1;PMS_P2;Temp;Humidity;BMP_temperature;BMP_pressure;BME280_temperature;BME280_humidity;BME280_pressure;Samples;Min_cycle;Max_cycle;Signal;HPM_P1;HPM_P2
2021/11/03 00:01:12;;;;;;;0.30;0.20;;;6.50;99.90;;;;;;5014652;28;20447;-83
2021/11/03 00:03:39;;;;;;;1.33;1.23;;;6.50;99.90;;;;;;5014578;28;20463;-83
2021/11/03 00:06:06;;;;;;;0.30;0.30;;;6.50;99.90;;;;;;5014538;28;20978;-83
2021/11/03 00:08:33;;;;;;;0.30;0.30;;;6.50;99.90;;;;;;5014798;28;20454;-83
2021/11/03 00:11:00;;;;;;;0.30;0.30;;;6.60;99.90;;;;;;5014506;28;20459;-83
2021/11/03 00:13:29;;;;;;;0.30;0.30;;;6.60;99.90;;;;;;5014627;28;20463;-82
2021/11/03 00:15:57;;;;;;;0.40;0.30;;;6.50;99.90;;;;;;5014685;28;20502;-83
2021/11/03 00:18:24;;;;;;;0.30;0.20;;;6.50;99.90;;;;;;5014442;28;20447;-82
2021/11/03 00:20:51;;;;;;;0.30;0.20;;;6.50;99.90;;;;;;5017470;28;20451;-82
2021/11/03 00:23:18;;;;;;;0.30;0.30;;;6.50;99.90;;;;;;5015028;28;20467;-83
2021/11/03 00:25:46;;;;;;;0.30;0.30;;;6.50;99.90;;;;;;5014466;28;20448;-83
2021/11/03 00:28:14;;;;;;;0.30;0.20;;;6.50;99.90;;;;;;5014461;28;20493;-83
2021/11/03 00:30:43;;;;;;;0.30;0.30;;;6.60;99.90;;;;;;5014396;28;20448;-82
2021/11/03 00:33:10;;;;;;;0.30;0.30;;;6.60;99.90;;;;;;5014303;28;20471;-83
2021/11/03 00:35:37;;;;;;;0.50;0.50;;;6.60;99.90;;;;;;5013958;28;20482;-83
2021/11/03 00:38:04;;;;;;;0.30;0.20;;;6.60;99.90;;;;;;5014332;28;20456;-82
2021/11/03 00:40:31;;;;;;;0.30;0.20;;;6.50;99.90;;;;;;5014252;28;20456;-82
2021/11/03 00:42:58;;;;;;;0.30;0.30;;;6.50;99.90;;;;;;5014103;28;20479;-83
2021/11/03 00:45:25;;;;;;;0.30;0.30;;;6.60;99.90;;;;;;5013835;28;20935;-83
2021/11/03 00:47:53;;;;;;;0.30;0.30;;;6.50;99.90;;;;;;5014162;28;20826;-83
2021/11/03 00:50:21;;;;;;;0.30;0.20;;;6.40;99.90;;;;;;5014156;28;20810;-82
2021/11/03 00:52:49;;;;;;;0.30;0.20;;;6.40;99.90;;;;;;5013685;28;20991;-82
2021/11/03 00:55:16;;;;;;;0.30;0.20;;;6.30;99.90;;;;;;5013394;28;20450;-82
2021/11/03 00:57:43;;;;;;;0.30;0.20;;;6.30;99.90;;;;;;5013977;28;20452;-82
2021/11/03 01:00:11;;;;;;;0.30;0.30;;;6.30;99.90;;;;;;5013455;28;21003;-83
2021/11/03 01:02:39;;;;;;;0.30;0.30;;;6.30;99.90;;;;;;5013641;28;20460;-82
2021/11/03 01:05:10;;;;;;;0.30;0.20;;;6.30;99.90;;;;;;5013888;28;20451;-83
2021/11/03 01:07:37;;;;;;;0.30;0.20;;;6.30;99.90;;;;;;5013912;28;20520;-82
2021/11/03 01:10:06;;;;;;;0.40;0.40;;;6.30;99.90;;;;;;5013846;28;20431;-82
2021/11/03 01:12:33;;;;;;;0.30;0.20;;;6.30;99.90;;;;;;5013752;28;20537;-83
2021/11/03 01:15:00;;;;;;;0.30;0.20;;;6.30;99.90;;;;;;5013740;28;20451;-83
2021/11/03 01:17:26;;;;;;;0.30;0.20;;;6.20;99.90;;;;;;5013846;28;20834;-83
2021/11/03 01:19:53;;;;;;;0.30;0.30;;;6.30;99.90;;;;;;5013435;28;20448;-83
2021/11/03 01:22:21;;;;;;;0.30;0.20;;;6.20;99.90;;;;;;5013643;28;20475;-83
2021/11/03 01:24:48;;;;;;;0.40;0.40;;;6.20;99.90;;;;;;5013652;28;20454;-84
2021/11/03 01:27:15;;;;;;;0.30;0.30;;;6.20;99.90;;;;;;5013359;28;20459;-84
2021/11/03 01:29:42;;;;;;;0.30;0.20;;;6.10;99.90;;;;;;5013373;28;20943;-84
2021/11/03 01:32:09;;;;;;;0.30;0.30;;;6.10;99.90;;;;;;5013579;28;20450;-83
2021/11/03 01:34:35;;;;;;;0.30;0.20;;;6.10;99.90;;;;;;5013519;28;20455;-83
2021/11/03 01:37:02;;;;;;;0.30;0.20;;;6.00;99.90;;;;;;5013156;28;21006;-83
2021/11/03 01:39:31;;;;;;;0.30;0.30;;;6.00;99.90;;;;;;5013489;28;20462;-82
2021/11/03 01:41:58;;;;;;;0.30;0.30;;;5.90;99.90;;;;;;5013341;28;20450;-82
2021/11/03 01:44:24;;;;;;;0.77;0.40;;;5.90;99.90;;;;;;5013447;28;20939;-81
2021/11/03 01:46:54;;;;;;;0.30;0.30;;;5.90;99.90;;;;;;5013442;28;20903;-81
2021/11/03 01:49:24;;;;;;;0.30;0.20;;;5.80;99.90;;;;;;5013123;28;20466;-81
2021/11/03 01:51:54;;;;;;;0.30;0.20;;;5.70;99.90;;;;;;5014075;28;20443;-80
2021/11/03 01:54:24;;;;;;;0.30;0.20;;;5.70;99.90;;;;;;5013092;28;20947;-80
2021/11/03 01:56:54;;;;;;;0.30;0.30;;;5.70;99.90;;;;;;5013889;28;20467;-80
2021/11/03 01:59:25;;;;;;;0.30;0.20;;;5.60;99.90;;;;;;5013175;28;20479;-80
2021/11/03 02:01:52;;;;;;;0.30;0.20;;;5.70;99.90;;;;;;5013001;28;20806;-80
2021/11/03 02:04:20;;;;;;;0.30;0.20;;;5.70;99.90;;;;;;5012879;28;20991;-80
2021/11/03 02:06:47;;;;;;;0.30;0.30;;;5.70;99.90;;;;;;5013236;28;20451;-80
2021/11/03 02:09:14;;;;;;;0.30;0.30;;;5.70;99.90;;;;;;5016888;28;20448;-80
2021/11/03 02:11:42;;;;;;;0.30;0.30;;;5.70;99.90;;;;;;5016947;28;20489;-80
2021/11/03 02:14:10;;;;;;;0.30;0.30;;;5.80;99.90;;;;;;5016871;28;20471;-80
2021/11/03 02:16:41;;;;;;;0.30;0.30;;;5.80;99.90;;;;;;5016802;28;20490;-80
2021/11/03 02:19:14;;;;;;;0.30;0.30;;;5.80;99.90;;;;;;5016898;28;20432;-80
2021/11/03 02:21:47;;;;;;;0.40;0.30;;;5.80;99.90;;;;;;5016662;28;20416;-80
2021/11/03 02:24:22;;;;;;;0.30;0.30;;;5.80;99.90;;;;;;5016709;28;20471;-80
2021/11/03 02:26:50;;;;;;;0.30;0.30;;;5.80;99.90;;;;;;5016449;28;20430;-80
2021/11/03 02:29:20;;;;;;;0.30;0.30;;;5.80;99.90;;;;;;5016658;28;20444;-80
2021/11/03 02:31:49;;;;;;;0.30;0.20;;;5.80;99.90;;;;;;5016333;28;20972;-80
2021/11/03 02:34:20;;;;;;;0.30;0.20;;;5.70;99.90;;;;;;5016612;28;20844;-80
2021/11/03 02:36:53;;;;;;;0.30;0.20;;;5.70;99.90;;;;;;5018288;28;20471;-80
2021/11/03 02:39:25;;;;;;;0.30;0.30;;;5.70;99.90;;;;;;5016378;28;20438;-81
2021/11/03 02:41:54;;;;;;;0.30;0.30;;;5.70;99.90;;;;;;5017161;28;20448;-80
2021/11/03 02:44:24;;;;;;;0.30;0.30;;;5.70;99.90;;;;;;5016394;28;20448;-80
2021/11/03 02:46:50;;;;;;;0.30;0.30;;;5.70;99.90;;;;;;5016324;28;20447;-80
2021/11/03 02:49:17;;;;;;;0.40;0.30;;;5.70;99.90;;;;;;5016282;28;20462;-80
2021/11/03 02:51:46;;;;;;;0.30;0.30;;;5.70;99.90;;;;;;5016238;28;20444;-81
2021/11/03 02:54:15;;;;;;;0.40;0.40;;;5.70;99.90;;;;;;5016104;28;20471;-80
2021/11/03 02:56:46;;;;;;;0.30;0.20;;;5.70;99.90;;;;;;5016075;28;20487;-81
2021/11/03 02:59:15;;;;;;;1.23;0.40;;;5.70;99.90;;;;;;5015886;28;20521;-80
2021/11/03 03:01:44;;;;;;;0.30;0.20;;;5.70;99.90;;;;;;5016137;28;20435;-81
2021/11/03 03:04:14;;;;;;;0.30;0.20;;;5.70;99.90;;;;;;5015706;28;20467;-81
2021/11/03 03:06:41;;;;;;;0.30;0.30;;;5.70;99.90;;;;;;5015966;28;20448;-81
2021/11/03 03:09:09;;;;;;;0.30;0.30;;;5.70;99.90;;;;;;5015885;28;20447;-81
2021/11/03 03:11:39;;;;;;;0.30;0.30;;;5.70;99.90;;;;;;5015570;28;20939;-81
2021/11/03 03:14:07;;;;;;;0.30;0.20;;;5.70;99.90;;;;;;5015633;28;20487;-82
2021/11/03 03:16:37;;;;;;;0.30;0.20;;;5.70;99.90;;;;;;5015465;28;20460;-82
2021/11/03 03:19:04;;;;;;;1.03;0.37;;;5.80;99.90;;;;;;5015536;28;20458;-82
2021/11/03 03:21:32;;;;;;;0.43;0.43;;;5.70;99.90;;;;;;5015393;28;20944;-81
2021/11/03 03:24:00;;;;;;;0.60;0.30;;;5.80;99.90;;;;;;5015317;28;20459;-82
2021/11/03 03:26:28;;;;;;;0.30;0.20;;;5.70;99.90;;;;;;5015602;28;20456;-82
2021/11/03 03:28:55;;;;;;;0.30;0.20;;;5.70;99.90;;;;;;5015243;28;20443;-83
2021/11/03 03:31:23;;;;;;;0.30;0.30;;;5.70;99.90;;;;;;5015206;28;20455;-83
2021/11/03 03:33:53;;;;;;;0.30;0.20;;;5.70;99.90;;;;;;5015384;28;20471;-83
2021/11/03 03:36:21;;;;;;;0.30;0.20;;;5.70;99.90;;;;;;5015324;28;20822;-83
2021/11/03 03:38:48;;;;;;;0.30;0.20;;;5.70;99.90;;;;;;5015381;28;20458;-83
2021/11/03 03:41:16;;;;;;;0.30;0.20;;;5.70;99.90;;;;;;5015352;28;20455;-83
2021/11/03 03:43:43;;;;;;;0.30;0.20;;;5.70;99.90;;;;;;5015294;28;20491;-83
2021/11/03 03:46:11;;;;;;;0.30;0.20;;;5.70;99.90;;;;;;5014888;28;20947;-82
2021/11/03 03:48:39;;;;;;;0.30;0.30;;;5.60;99.90;;;;;;5015267;28;20456;-83
2021/11/03 03:51:08;;;;;;;0.30;0.20;;;5.60;99.90;;;;;;5015148;28;20454;-83
2021/11/03 03:53:35;;;;;;;0.30;0.30;;;5.60;99.90;;;;;;5015222;28;20459;-83
2021/11/03 03:56:02;;;;;;;0.30;0.20;;;5.70;99.90;;;;;;5015200;28;20452;-83
2021/11/03 03:58:29;;;;;;;0.30;0.30;;;5.70;99.90;;;;;;5014673;28;20489;-83
2021/11/03 04:00:55;;;;;;;0.30;0.30;;;5.60;99.90;;;;;;5014481;28;20483;-84
2021/11/03 04:03:22;;;;;;;0.30;0.20;;;5.70;99.90;;;;;;5014674;28;20459;-84
2021/11/03 04:05:50;;;;;;;0.30;0.20;;;5.70;99.90;;;;;;5014872;28;20447;-83
2021/11/03 04:08:20;;;;;;;0.30;0.30;;;5.70;99.90;;;;;;5014893;28;20447;-83
2021/11/03 04:10:47;;;;;;;0.30;0.30;;;5.70;99.90;;;;;;5014553;28;20494;-83
2021/11/03 04:13:15;;;;;;;0.30;0.30;;;5.70;99.90;;;;;;5014531;28;20482;-83
2021/11/03 04:15:43;;;;;;;0.30;0.20;;;5.70;99.90;;;;;;5014741;28;20440;-82
2021/11/03 04:18:10;;;;;;;0.30;0.20;;;5.80;99.90;;;;;;5014299;28;20490;-83
2021/11/03 04:20:37;;;;;;;0.53;0.43;;;5.70;99.90;;;;;;5014302;28;20959;-83
2021/11/03 04:23:04;;;;;;;0.30;0.30;;;5.80;99.90;;;;;;5014499;28;20479;-83
2021/11/03 04:25:33;;;;;;;0.30;0.30;;;5.70;99.90;;;;;;5014553;28;20447;-82
2021/11/03 04:28:02;;;;;;;0.30;0.20;;;5.70;99.90;;;;;;5014291;28;20880;-83
2021/11/03 04:30:30;;;;;;;0.30;0.30;;;5.80;99.90;;;;;;5013636;28;21004;-83
2021/11/03 04:32:57;;;;;;;0.30;0.30;;;5.70;99.90;;;;;;5014195;28;20479;-84
2021/11/03 04:35:25;;;;;;;0.40;0.40;;;5.80;99.90;;;;;;5014387;28;20454;-84
2021/11/03 04:37:52;;;;;;;0.30;0.20;;;5.80;99.90;;;;;;5013964;28;21033;-84
2021/11/03 04:40:21;;;;;;;0.30;0.30;;;5.80;99.90;;;;;;5014263;28;20459;-83
2021/11/03 04:42:49;;;;;;;0.30;0.20;;;5.80;99.90;;;;;;5014166;28;20842;-83
2021/11/03 04:45:18;;;;;;;0.30;0.30;;;5.90;99.90;;;;;;5013931;28;20450;-82
2021/11/03 04:47:45;;;;;;;0.30;0.30;;;5.80;99.90;;;;;;5014708;28;20444;-82
2021/11/03 04:50:16;;;;;;;0.30;0.20;;;5.80;99.90;;;;;;5016017;28;20952;-83
2021/11/03 04:52:42;;;;;;;0.40;0.30;;;5.80;99.90;;;;;;5013874;28;20451;-83
2021/11/03 04:55:09;;;;;;;0.30;0.20;;;5.80;99.90;;;;;;5014013;28;20454;-83
2021/11/03 04:57:36;;;;;;;0.30;0.20;;;5.80;99.90;;;;;;5015789;28;20502;-82
2021/11/03 05:00:07;;;;;;;0.30;0.30;;;5.80;99.90;;;;;;5013495;28;20524;-82
2021/11/03 05:02:34;;;;;;;0.30;0.20;;;5.80;99.90;;;;;;5013902;28;20503;-83
2021/11/03 05:05:00;;;;;;;0.30;0.20;;;5.70;99.90;;;;;;5014185;28;20442;-82
2021/11/03 05:07:27;;;;;;;0.30;0.30;;;5.70;99.90;;;;;;5013576;28;20440;-81
2021/11/03 05:09:54;;;;;;;0.77;0.70;;;5.70;99.90;;;;;;5013853;28;20454;-82
2021/11/03 05:12:21;;;;;;;0.30;0.20;;;5.80;99.90;;;;;;5014053;28;20483;-82
2021/11/03 05:14:48;;;;;;;0.30;0.30;;;5.80;99.90;;;;;;5013726;28;20846;-82
2021/11/03 05:17:16;;;;;;;0.30;0.20;;;5.80;99.90;;;;;;5013656;28;20598;-82
2021/11/03 05:19:42;;;;;;;0.30;0.20;;;5.70;99.90;;;;;;5013723;28;20447;-82
2021/11/03 05:22:13;;;;;;;0.30;0.20;;;5.70;99.90;;;;;;5013646;28;20783;-83
2021/11/03 05:24:40;;;;;;;0.30;0.20;;;5.70;99.90;;;;;;5011551;28;20538;-82
2021/11/03 05:27:07;;;;;;;0.30;0.20;;;5.70;99.90;;;;;;5013365;28;20804;-82
2021/11/03 05:29:34;;;;;;;0.30;0.20;;;5.70;99.90;;;;;;5013632;28;20446;-82
2021/11/03 05:32:01;;;;;;;2.10;0.50;;;5.70;99.90;;;;;;5013214;28;20440;-83
2021/11/03 05:34:29;;;;;;;0.30;0.20;;;5.70;99.90;;;;;;5013512;28;20443;-83
2021/11/03 05:36:56;;;;;;;0.30;0.30;;;5.70;99.90;;;;;;5013452;28;20459;-83
2021/11/03 05:39:22;;;;;;;0.40;0.30;;;5.80;99.90;;;;;;5013211;28;20977;-83
2021/11/03 05:41:49;;;;;;;0.30;0.20;;;5.90;99.90;;;;;;5013548;28;20458;-83
2021/11/03 05:44:18;;;;;;;0.30;0.20;;;5.90;99.90;;;;;;5017319;28;20489;-83
2021/11/03 05:46:48;;;;;;;0.30;0.20;;;5.90;99.90;;;;;;5017540;28;20447;-84
2021/11/03 05:49:17;;;;;;;0.30;0.20;;;5.90;99.90;;;;;;5017147;28;20470;-84
2021/11/03 05:51:47;;;;;;;0.30;0.30;;;5.80;99.90;;;;;;5017643;28;20458;-83
2021/11/03 05:54:14;;;;;;;0.30;0.20;;;5.80;99.90;;;;;;5017516;28;20839;-83
2021/11/03 05:56:41;;;;;;;0.30;0.30;;;5.80;99.90;;;;;;5017360;28;20533;-84
2021/11/03 05:59:09;;;;;;;0.97;0.97;;;5.70;99.90;;;;;;5016948;28;20493;-84
2021/11/03 06:01:35;;;;;;;0.40;0.40;;;5.70;99.90;;;;;;5017385;28;20447;-85
2021/11/03 06:04:03;;;;;;;0.30;0.20;;;5.70;99.90;;;;;;5017209;28;20475;-84
2021/11/03 06:06:29;;;;;;;0.30;0.30;;;5.70;99.90;;;;;;5017110;28;20431;-84
2021/11/03 06:08:57;;;;;;;0.40;0.40;;;5.80;99.90;;;;;;5016887;28;20449;-85
2021/11/03 06:11:28;;;;;;;0.30;0.30;;;5.80;99.90;;;;;;5017055;28;20635;-85
2021/11/03 06:13:55;;;;;;;0.30;0.30;;;5.80;99.90;;;;;;5016963;28;20481;-85
2021/11/03 06:16:22;;;;;;;0.30;0.20;;;5.80;99.90;;;;;;5016934;28;20459;-85
2021/11/03 06:18:49;;;;;;;0.30;0.20;;;5.80;99.90;;;;;;5016908;28;20851;-84
2021/11/03 06:21:15;;;;;;;0.30;0.20;;;5.80;99.90;;;;;;5016748;28;20440;-84
2021/11/03 06:23:42;;;;;;;0.40;0.30;;;5.80;99.90;;;;;;5016727;28;20463;-85
2021/11/03 06:26:11;;;;;;;0.30;0.20;;;5.90;99.90;;;;;;5016818;28;20458;-84
2021/11/03 06:28:38;;;;;;;0.33;0.30;;;6.00;99.90;;;;;;5016459;28;20908;-84
2021/11/03 06:31:06;;;;;;;0.30;0.20;;;6.00;99.90;;;;;;5016705;28;20459;-85
2021/11/03 06:33:34;;;;;;;0.30;0.30;;;6.00;99.90;;;;;;5016773;28;20475;-85
2021/11/03 06:36:02;;;;;;;0.40;0.30;;;6.00;99.90;;;;;;5016668;28;20451;-85
2021/11/03 06:38:29;;;;;;;0.30;0.30;;;6.00;99.90;;;;;;5016510;28;20983;-85
2021/11/03 06:40:58;;;;;;;0.30;0.20;;;6.10;99.90;;;;;;5016652;28;20450;-85
2021/11/03 06:43:26;;;;;;;0.30;0.20;;;6.10;99.90;;;;;;5016789;28;21049;-85
2021/11/03 06:45:53;;;;;;;0.50;0.50;;;6.00;99.90;;;;;;5016403;28;20811;-85
2021/11/03 06:48:20;;;;;;;0.30;0.20;;;6.00;99.90;;;;;;5016072;28;20452;-84
2021/11/03 06:50:47;;;;;;;0.30;0.20;;;5.90;99.90;;;;;;5016097;28;20807;-84
2021/11/03 06:53:19;;;;;;;0.30;0.20;;;6.00;99.90;;;;;;5015696;28;20482;-84
2021/11/03 06:55:47;;;;;;;0.37;0.30;;;6.00;99.90;;;;;;5016284;28;20467;-84
2021/11/03 06:58:15;;;;;;;0.30;0.20;;;6.00;99.90;;;;;;5016184;28;20578;-84
2021/11/03 07:00:46;;;;;;;0.37;0.37;;;6.10;99.90;;;;;;5015811;28;20990;-85
2021/11/03 07:03:13;;;;;;;0.30;0.20;;;6.10;99.90;;;;;;5016080;28;20471;-85
2021/11/03 07:05:41;;;;;;;0.30;0.20;;;6.20;99.90;;;;;;5015862;28;20436;-84
2021/11/03 07:08:09;;;;;;;0.30;0.20;;;6.30;99.90;;;;;;5015972;28;20458;-84
2021/11/03 07:10:37;;;;;;;0.30;0.30;;;6.20;99.90;;;;;;5015769;28;20975;-85
2021/11/03 07:13:05;;;;;;;0.30;0.20;;;6.30;99.90;;;;;;5015682;28;21012;-84
2021/11/03 07:15:32;;;;;;;0.30;0.20;;;6.30;99.90;;;;;;5016546;28;20459;-84
2021/11/03 07:18:01;;;;;;;1.17;0.50;;;6.30;99.90;;;;;;5018646;28;20488;-84
2021/11/03 07:20:28;;;;;;;0.30;0.20;;;6.30;99.90;;;;;;5016475;28;20456;-84
2021/11/03 07:22:55;;;;;;;0.30;0.30;;;6.40;99.90;;;;;;5015811;28;20471;-86
2021/11/03 07:25:24;;;;;;;0.30;0.30;;;6.50;99.90;;;;;;5015451;28;20454;-85
2021/11/03 07:27:52;;;;;;;0.30;0.20;;;6.50;99.90;;;;;;5015675;28;20444;-84
2021/11/03 07:30:21;;;;;;;0.30;0.23;;;6.60;99.90;;;;;;5015621;28;20463;-85
2021/11/03 07:32:48;;;;;;;0.30;0.20;;;6.60;99.90;;;;;;5015308;28;20455;-83
2021/11/03 07:35:16;;;;;;;0.30;0.20;;;6.70;99.90;;;;;;5015616;28;20443;-86
2021/11/03 07:37:43;;;;;;;0.30;0.30;;;6.70;99.90;;;;;;5015553;28;20476;-85
2021/11/03 07:40:12;;;;;;;0.50;0.50;;;6.80;99.90;;;;;;5015805;28;20479;-86
2021/11/03 07:42:40;;;;;;;0.30;0.30;;;6.90;99.90;;;;;;5015369;28;20472;-85
2021/11/03 07:45:08;;;;;;;0.30;0.27;;;6.90;99.90;;;;;;5015497;28;20435;-87
2021/11/03 07:47:35;;;;;;;0.30;0.30;;;6.90;99.90;;;;;;5015369;28;20439;-85
2021/11/03 07:50:02;;;;;;;0.30;0.30;;;6.90;99.90;;;;;;5015374;28;20436;-84
2021/11/03 07:52:30;;;;;;;0.30;0.20;;;6.90;99.90;;;;;;5015297;28;20563;-85
2021/11/03 07:54:57;;;;;;;0.30;0.30;;;7.00;99.90;;;;;;5015168;28;20427;-84
2021/11/03 07:57:24;;;;;;;0.30;0.30;;;7.00;99.90;;;;;;5015168;28;20443;-84
2021/11/03 07:59:51;;;;;;;0.30;0.20;;;7.00;99.90;;;;;;5015058;28;20496;-84
2021/11/03 08:02:17;;;;;;;0.30;0.20;;;7.10;99.90;;;;;;5014920;28;20468;-84
2021/11/03 08:04:44;;;;;;;0.30;0.20;;;7.10;99.90;;;;;;5014043;28;20440;-83
2021/11/03 08:07:11;;;;;;;0.30;0.20;;;7.20;99.90;;;;;;5014766;28;20447;-83
2021/11/03 08:09:44;;;;;;;0.30;0.20;;;7.20;99.90;;;;;;5016729;28;20447;-84
2021/11/03 08:12:11;;;;;;;0.40;0.30;;;7.10;99.90;;;;;;5016030;28;20428;-83
2021/11/03 08:14:38;;;;;;;0.30;0.27;;;7.10;99.90;;;;;;5014879;28;20451;-84
2021/11/03 08:17:08;;;;;;;0.40;0.37;;;7.20;99.90;;;;;;5014866;28;20452;-83
2021/11/03 08:19:41;;;;;;;0.30;0.30;;;7.20;99.90;;;;;;5014279;28;20464;-84
2021/11/03 08:22:08;;;;;;;0.30;0.30;;;7.20;99.90;;;;;;5014081;28;20519;-83
2021/11/03 08:24:36;;;;;;;0.30;0.20;;;7.20;99.90;;;;;;5014555;28;20450;-84
2021/11/03 08:27:05;;;;;;;0.30;0.30;;;7.30;99.90;;;;;;5014513;28;20458;-84
2021/11/03 08:29:32;;;;;;;0.30;0.20;;;7.40;99.90;;;;;;5014513;28;20444;-83
2021/11/03 08:32:00;;;;;;;0.37;0.27;;;7.30;99.90;;;;;;5014412;28;20459;-83
2021/11/03 08:34:31;;;;;;;0.50;0.50;;;7.30;99.90;;;;;;5014452;28;20454;-84
2021/11/03 08:37:02;;;;;;;0.30;0.23;;;7.40;99.90;;;;;;5014398;28;20472;-83
2021/11/03 08:39:29;;;;;;;0.30;0.30;;;7.40;99.90;;;;;;5013970;28;20464;-83
2021/11/03 08:41:56;;;;;;;0.30;0.20;;;7.50;99.90;;;;;;5014285;28;20546;-83
2021/11/03 08:44:25;;;;;;;0.30;0.20;;;7.50;99.90;;;;;;5014243;28;20444;-83
2021/11/03 08:46:52;;;;;;;0.40;0.37;;;7.50;99.90;;;;;;5014194;28;20459;-82
2021/11/03 08:49:19;;;;;;;0.30;0.20;;;7.60;99.90;;;;;;5013722;28;20935;-82
2021/11/03 08:51:45;;;;;;;0.40;0.40;;;7.60;99.90;;;;;;5013499;28;20458;-82
2021/11/03 08:54:12;;;;;;;0.30;0.20;;;7.60;99.90;;;;;;5013295;28;20464;-83
2021/11/03 08:56:40;;;;;;;0.30;0.30;;;7.60;99.90;;;;;;5014090;28;20459;-82
2021/11/03 08:59:08;;;;;;;0.80;0.60;;;7.70;99.90;;;;;;5013545;28;20495;-82
2021/11/03 09:01:36;;;;;;;0.30;0.30;;;7.70;99.90;;;;;;5014001;28;20494;-82
2021/11/03 09:04:04;;;;;;;0.30;0.30;;;7.70;99.90;;;;;;5013594;28;20467;-82
2021/11/03 09:06:31;;;;;;;0.30;0.20;;;7.80;99.90;;;;;;5013903;28;20447;-82
2021/11/03 09:08:57;;;;;;;0.30;0.20;;;8.00;99.90;;;;;;5014043;28;20439;-80
2021/11/03 09:11:27;;;;;;;0.30;0.30;;;8.10;99.90;;;;;;5013649;28;20463;-84
2021/11/03 09:13:54;;;;;;;0.30;0.27;;;8.20;99.90;;;;;;5013795;28;20467;-82
2021/11/03 09:16:21;;;;;;;0.30;0.30;;;8.30;99.90;;;;;;5013568;28;20458;-82
2021/11/03 09:18:50;;;;;;;0.30;0.20;;;8.30;99.90;;;;;;5013770;28;20479;-82
2021/11/03 09:21:18;;;;;;;0.30;0.30;;;8.50;99.90;;;;;;5013545;28;20439;-82
2021/11/03 09:23:46;;;;;;;0.30;0.30;;;8.50;99.90;;;;;;5013385;28;20456;-82
2021/11/03 09:26:13;;;;;;;0.30;0.20;;;8.60;99.90;;;;;;5013411;28;20444;-82
2021/11/03 09:28:41;;;;;;;0.40;0.30;;;8.50;99.90;;;;;;5013659;28;20451;-82
2021/11/03 09:31:09;;;;;;;1.37;0.30;;;8.50;99.90;;;;;;5013295;28;20966;-82
2021/11/03 09:33:37;;;;;;;0.30;0.23;;;8.60;99.90;;;;;;5013556;28;20467;-82
2021/11/03 09:36:06;;;;;;;0.30;0.30;;;8.60;99.90;;;;;;5013579;28;20463;-82
2021/11/03 09:38:34;;;;;;;0.63;0.37;;;8.60;99.90;;;;;;5013247;28;20463;-82
2021/11/03 09:41:06;;;;;;;0.67;0.67;;;8.70;99.90;;;;;;5013632;28;20436;-82
2021/11/03 09:43:35;;;;;;;0.30;0.20;;;8.80;99.90;;;;;;5013497;28;20463;-82
2021/11/03 09:46:14;;;;;;;0.40;0.30;;;8.90;99.90;;;;;;5013505;28;20440;-82
2021/11/03 09:48:41;;;;;;;0.30;0.30;;;8.90;99.90;;;;;;5013151;28;20431;-82
2021/11/03 09:51:17;;;;;;;0.40;0.30;;;8.90;99.90;;;;;;5013190;28;20432;-82
2021/11/03 09:53:47;;;;;;;0.30;0.20;;;8.90;99.90;;;;;;5013402;28;20474;-83
2021/11/03 09:56:17;;;;;;;0.30;0.27;;;8.90;99.90;;;;;;5013434;28;20494;-83
2021/11/03 09:58:56;;;;;;;0.30;0.20;;;8.90;99.90;;;;;;5013139;28;20512;-83
2021/11/03 10:01:34;;;;;;;0.30;0.20;;;8.90;99.90;;;;;;5013105;28;20435;-83
2021/11/03 10:04:10;;;;;;;0.80;0.40;;;8.90;99.90;;;;;;5013245;28;20486;-83
2021/11/03 10:12:02;;;;;;;0.30;0.27;;;8.90;99.90;;;;;;5237457;23;20507;-82
2021/11/03 10:53:26;;;;;;;0.80;0.37;;;9.30;99.90;;;;;;5344004;23;20540;-85
2021/11/03 10:56:01;;;;;;;3.23;0.47;;;9.30;99.90;;;;;;5016493;28;20408;-84
2021/11/03 10:58:31;;;;;;;0.40;0.30;;;9.30;99.90;;;;;;5016019;28;20914;-84
2021/11/03 11:01:01;;;;;;;0.30;0.20;;;9.30;99.90;;;;;;5016479;28;20448;-84
2021/11/03 11:03:31;;;;;;;0.30;0.20;;;9.30;99.90;;;;;;5016058;28;20466;-84
2021/11/03 11:06:07;;;;;;;0.30;0.30;;;9.30;99.90;;;;;;5015971;28;20915;-84
2021/11/03 11:08:50;;;;;;;0.30;0.20;;;9.30;99.90;;;;;;5015881;28;20439;-84
2021/11/03 11:11:21;;;;;;;0.30;0.20;;;9.20;99.90;;;;;;5016181;28;20435;-81
2021/11/03 11:13:56;;;;;;;0.33;0.30;;;9.20;99.90;;;;;;5015574;28;20472;-84
2021/11/03 11:16:30;;;;;;;0.30;0.30;;;9.20;99.90;;;;;;5016036;28;20493;-85
2021/11/03 11:19:04;;;;;;;0.83;0.37;;;9.20;99.90;;;;;;5015526;28;20987;-85
2021/11/03 11:21:40;;;;;;;1.37;0.40;;;9.20;99.90;;;;;;5015945;28;20870;-85
2021/11/03 11:24:15;;;;;;;0.30;0.20;;;9.20;99.90;;;;;;5015836;28;20475;-85
2021/11/03 11:26:48;;;;;;;0.30;0.30;;;9.30;99.90;;;;;;5015577;28;20434;-84
2021/11/03 11:29:23;;;;;;;0.30;0.27;;;9.30;99.90;;;;;;5015755;28;20432;-85
2021/11/03 11:31:57;;;;;;;0.57;0.30;;;9.30;99.90;;;;;;5015424;28;20438;-85
2021/11/03 11:34:41;;;;;;;0.30;0.30;;;9.30;99.90;;;;;;5015644;28;20530;-85
2021/11/03 11:37:15;;;;;;;0.30;0.30;;;9.20;99.90;;;;;;5273165;23;21039;-85
2021/11/03 11:39:48;;;;;;;0.30;0.30;;;9.20;99.90;;;;;;4995986;28;20543;-85
2021/11/03 11:42:20;;;;;;;0.30;0.30;;;9.30;99.90;;;;;;4995929;28;20437;-86
2021/11/03 11:44:55;;;;;;;0.40;0.30;;;9.30;99.90;;;;;;4995991;28;20443;-85
2021/11/03 11:47:29;;;;;;;1.23;1.13;;;9.30;99.90;;;;;;4995638;28;20439;-85
2021/11/03 11:49:56;;;;;;;0.30;0.30;;;9.30;99.90;;;;;;4996005;28;20435;-85
2021/11/03 11:52:26;;;;;;;0.30;0.30;;;9.30;99.90;;;;;;4995579;28;20453;-85
2021/11/03 11:55:22;;;;;;;0.30;0.30;;;9.30;99.90;;;;;;4995863;28;20437;-85
2021/11/03 11:58:25;;;;;;;0.30;0.20;;;9.30;99.90;;;;;;4997301;28;20901;-85
2021/11/03 12:01:21;;;;;;;0.30;0.30;;;9.30;99.90;;;;;;4989956;28;20492;-85
2021/11/03 12:04:13;;;;;;;0.40;0.30;;;9.30;99.90;;;;;;4995604;28;20814;-84
2021/11/03 12:06:42;;;;;;;0.30;0.30;;;9.30;99.90;;;;;;4995176;28;20440;-84
2021/11/03 12:09:21;;;;;;;0.30;0.20;;;9.30;99.90;;;;;;4995387;28;20428;-84
2021/11/03 12:12:21;;;;;;;0.30;0.30;;;9.30;99.90;;;;;;4995028;28;20944;-85
2021/11/03 12:14:52;;;;;;;0.30;0.20;;;9.20;99.90;;;;;;4995520;28;20436;-84
2021/11/03 12:17:44;;;;;;;0.30;0.20;;;9.20;99.90;;;;;;4995377;28;20429;-85
2021/11/03 12:20:42;;;;;;;0.30;0.27;;;9.20;99.90;;;;;;4995247;28;20495;-85
2021/11/03 12:23:38;;;;;;;0.30;0.23;;;9.20;99.90;;;;;;4995010;28;20480;-84
2021/11/03 12:26:39;;;;;;;0.30;0.30;;;9.20;99.90;;;;;;4995063;28;20445;-84
2021/11/03 12:29:32;;;;;;;0.30;0.20;;;9.20;99.90;;;;;;4995047;28;20448;-84
2021/11/03 12:32:01;;;;;;;0.30;0.30;;;9.20;99.90;;;;;;4994930;28;20436;-85
2021/11/03 12:34:32;;;;;;;0.30;0.30;;;9.20;99.90;;;;;;4994612;28;20910;-85
2021/11/03 12:37:16;;;;;;;0.30;0.20;;;9.20;99.90;;;;;;4994544;28;20572;-84
2021/11/03 12:40:25;;;;;;;0.30;0.20;;;9.20;99.90;;;;;;4999052;28;20468;-84
2021/11/03 12:43:03;;;;;;;0.30;0.30;;;9.10;99.90;;;;;;4957345;28;20463;-85
2021/11/03 12:45:36;;;;;;;0.30;0.20;;;9.00;99.90;;;;;;4995111;28;20499;-84
2021/11/03 12:48:04;;;;;;;0.30;0.30;;;8.90;99.90;;;;;;4994422;28;20410;-84
2021/11/03 12:50:36;;;;;;;0.30;0.30;;;8.90;99.90;;;;;;4994191;28;20449;-84
2021/11/03 12:53:14;;;;;;;0.30;0.20;;;8.80;99.90;;;;;;4994229;28;20464;-84
2021/11/03 12:55:49;;;;;;;0.30;0.30;;;8.80;99.90;;;;;;4995271;28;20788;-84
2021/11/03 12:58:33;;;;;;;0.30;0.30;;;8.80;99.90;;;;;;4994462;28;20432;-84
2021/11/03 13:01:05;;;;;;;0.30;0.30;;;8.70;99.90;;;;;;4994541;28;20476;-84
2021/11/03 13:03:34;;;;;;;0.30;0.30;;;8.70;99.90;;;;;;4994428;28;20476;-85
2021/11/03 13:06:02;;;;;;;0.30;0.30;;;8.70;99.90;;;;;;4994328;28;20802;-85
2021/11/03 13:08:31;;;;;;;0.30;0.27;;;8.70;99.90;;;;;;4994336;28;20448;-85
2021/11/03 13:11:04;;;;;;;0.30;0.20;;;8.70;99.90;;;;;;4994314;28;21027;-85
2021/11/03 13:13:31;;;;;;;0.40;0.40;;;8.60;99.90;;;;;;4994319;28;20459;-85
2021/11/03 13:16:02;;;;;;;0.30;0.30;;;8.60;99.90;;;;;;4995950;28;20414;-85
2021/11/03 13:18:38;;;;;;;0.30;0.30;;;8.50;99.90;;;;;;4995671;28;20905;-85
2021/11/03 13:21:18;;;;;;;0.30;0.20;;;8.50;99.90;;;;;;4994530;28;20472;-85
2021/11/03 13:23:46;;;;;;;0.30;0.20;;;8.50;99.90;;;;;;4994209;28;20472;-85
2021/11/03 13:26:16;;;;;;;0.30;0.30;;;8.40;99.90;;;;;;4994404;28;20436;-85
2021/11/03 13:28:45;;;;;;;0.30;0.20;;;8.40;99.90;;;;;;4994129;28;20447;-85
2021/11/03 13:31:23;;;;;;;0.60;0.30;;;8.40;99.90;;;;;;4993954;28;20495;-86
2021/11/03 13:34:14;;;;;;;0.30;0.30;;;8.40;99.90;;;;;;4994023;28;20476;-86
2021/11/03 13:36:53;;;;;;;0.30;0.30;;;8.40;99.90;;;;;;4993751;28;20464;-86
2021/11/03 13:39:25;;;;;;;0.43;0.43;;;8.30;99.90;;;;;;4993739;28;20424;-85
2021/11/03 13:41:53;;;;;;;0.30;0.20;;;8.30;99.90;;;;;;4993971;28;20532;-85
2021/11/03 13:44:23;;;;;;;0.30;0.30;;;8.40;99.90;;;;;;4993945;28;20984;-85
2021/11/03 13:46:52;;;;;;;0.50;0.50;;;8.30;99.90;;;;;;4993964;28;20571;-85
2021/11/03 13:49:24;;;;;;;0.30;0.20;;;8.30;99.90;;;;;;4993923;28;20445;-84
2021/11/03 13:51:56;;;;;;;0.30;0.20;;;8.30;99.90;;;;;;4993921;28;20440;-84
2021/11/03 13:54:29;;;;;;;0.30;0.20;;;8.20;99.90;;;;;;4993632;28;20783;-84
2021/11/03 13:56:58;;;;;;;0.30;0.20;;;8.20;99.90;;;;;;4993878;28;20454;-84